sensor_id;sensor_type;location;lat;lon;timestamp;temperature;humidity
6439;DHT22;3252;52.540;13.290;2023-05-02T00:00:40;13.30;99.90
6439;DHT22;3252;52.540;13.290;2023-05-02T00:02:43;13.30;99.90
6439;DHT22;3252;52.540;13.290;2023-05-02T00:04:45;13.30;99.90
6439;DHT22;3252;52.540;13.290;2023-05-02T00:06:47;13.30;99.90
6439;DHT22;3252;52.540;13.290;2023-05-02T00:08:49;13.30;99.90
6439;DHT22;3252;52.540;13.290;2023-05-02T00:10:53;13.20;99.90
6439;DHT22;3252;52.540;13.290;2023-05-02T00:12:55;13.10;99.90
6439;DHT22;3252;52.540;13.290;2023-05-02T00:14:57;13.10;99.90
6439;DHT22;3252;52.540;13.290;2023-05-02T00:16:59;13.10;98.80
6439;DHT22;3252;52.540;13.290;2023-05-02T00:19:01;13.10;98.40
6439;DHT22;3252;52.540;13.290;2023-05-02T00:21:03;13.10;99.40
6439;DHT22;3252;52.540;13.290;2023-05-02T00:23:06;13.00;99.90
6439;DHT22;3252;52.540;13.290;2023-05-02T00:25:08;13.00;99.90
6439;DHT22;3252;52.540;13.290;2023-05-02T00:27:18;13.00;99.90
6439;DHT22;3252;52.540;13.290;2023-05-02T00:29:20;13.00;99.90
6439;DHT22;3252;52.540;13.290;2023-05-02T00:31:22;12.90;99.30
6439;DHT22;3252;52.540;13.290;2023-05-02T00:33:24;12.90;98.20
6439;DHT22;3252;52.540;13.290;2023-05-02T00:35:27;12.80;99.60
6439;DHT22;3252;52.540;13.290;2023-05-02T00:37:29;12.80;98.70
6439;DHT22;3252;52.540;13.290;2023-05-02T00:39:33;12.70;98.30
6439;DHT22;3252;52.540;13.290;2023-05-02T00:41:35;12.80;98.60
6439;DHT22;3252;52.540;13.290;2023-05-02T00:43:40;12.70;97.70
6439;DHT22;3252;52.540;13.290;2023-05-02T00:45:43;12.70;97.80
6439;DHT22;3252;52.540;13.290;2023-05-02T00:47:45;12.70;99.30
6439;DHT22;3252;52.540;13.290;2023-05-02T00:49:51;12.70;99.70
6439;DHT22;3252;52.540;13.290;2023-05-02T00:51:54;12.60;99.50
6439;DHT22;3252;52.540;13.290;2023-05-02T00:53:56;12.60;98.20
6439;DHT22;3252;52.540;13.290;2023-05-02T00:55:58;12.60;98.60
6439;DHT22;3252;52.540;13.290;2023-05-02T00:58:04;12.60;98.00
6439;DHT22;3252;52.540;13.290;2023-05-02T01:00:09;12.60;97.80
6439;DHT22;3252;52.540;13.290;2023-05-02T01:02:29;12.60;96.40
6439;DHT22;3252;52.540;13.290;2023-05-02T01:04:41;12.60;95.50
6439;DHT22;3252;52.540;13.290;2023-05-02T01:07:04;12.70;95.00
6439;DHT22;3252;52.540;13.290;2023-05-02T01:09:15;12.70;94.60
6439;DHT22;3252;52.540;13.290;2023-05-02T01:11:27;12.70;95.00
6439;DHT22;3252;52.540;13.290;2023-05-02T01:13:32;12.80;95.10
6439;DHT22;3252;52.540;13.290;2023-05-02T01:15:39;12.80;94.00
6439;DHT22;3252;52.540;13.290;2023-05-02T01:17:43;12.80;93.60
6439;DHT22;3252;52.540;13.290;2023-05-02T01:19:51;12.90;93.30
6439;DHT22;3252;52.540;13.290;2023-05-02T01:21:54;13.00;93.50
6439;DHT22;3252;52.540;13.290;2023-05-02T01:24:08;13.00;93.30
6439;DHT22;3252;52.540;13.290;2023-05-02T01:26:16;13.10;93.70
6439;DHT22;3252;52.540;13.290;2023-05-02T01:28:30;13.20;93.40
6439;DHT22;3252;52.540;13.290;2023-05-02T01:30:40;13.20;93.80
6439;DHT22;3252;52.540;13.290;2023-05-02T01:32:45;13.20;93.30
6439;DHT22;3252;52.540;13.290;2023-05-02T01:34:49;13.30;93.70
6439;DHT22;3252;52.540;13.290;2023-05-02T01:36:54;13.30;93.60
6439;DHT22;3252;52.540;13.290;2023-05-02T01:39:00;13.30;93.80
6439;DHT22;3252;52.540;13.290;2023-05-02T01:41:04;13.30;94.20
6439;DHT22;3252;52.540;13.290;2023-05-02T01:43:07;13.30;94.00
6439;DHT22;3252;52.540;13.290;2023-05-02T01:45:11;13.30;94.30
6439;DHT22;3252;52.540;13.290;2023-05-02T01:47:15;13.30;94.50
6439;DHT22;3252;52.540;13.290;2023-05-02T01:49:22;13.20;94.30
6439;DHT22;3252;52.540;13.290;2023-05-02T01:51:29;13.20;94.30
6439;DHT22;3252;52.540;13.290;2023-05-02T01:53:34;13.20;94.50
6439;DHT22;3252;52.540;13.290;2023-05-02T01:55:37;13.20;94.60
6439;DHT22;3252;52.540;13.290;2023-05-02T01:57:42;13.20;94.80
6439;DHT22;3252;52.540;13.290;2023-05-02T01:59:46;13.20;95.10
6439;DHT22;3252;52.540;13.290;2023-05-02T02:01:50;13.10;95.20
6439;DHT22;3252;52.540;13.290;2023-05-02T02:03:57;13.10;95.00
6439;DHT22;3252;52.540;13.290;2023-05-02T02:06:00;13.10;95.50
6439;DHT22;3252;52.540;13.290;2023-05-02T02:08:04;13.10;95.50
6439;DHT22;3252;52.540;13.290;2023-05-02T02:10:07;13.00;95.70
6439;DHT22;3252;52.540;13.290;2023-05-02T02:12:11;13.00;95.70
6439;DHT22;3252;52.540;13.290;2023-05-02T02:14:19;12.90;95.90
6439;DHT22;3252;52.540;13.290;2023-05-02T02:16:27;12.90;96.30
6439;DHT22;3252;52.540;13.290;2023-05-02T02:18:36;12.90;96.20
6439;DHT22;3252;52.540;13.290;2023-05-02T02:20:42;12.80;96.40
6439;DHT22;3252;52.540;13.290;2023-05-02T02:22:47;12.70;96.40
6439;DHT22;3252;52.540;13.290;2023-05-02T02:24:50;12.70;96.70
6439;DHT22;3252;52.540;13.290;2023-05-02T02:26:54;12.70;96.70
6439;DHT22;3252;52.540;13.290;2023-05-02T02:28:56;12.60;96.70
6439;DHT22;3252;52.540;13.290;2023-05-02T02:30:58;12.60;96.90
6439;DHT22;3252;52.540;13.290;2023-05-02T02:33:00;12.60;97.10
6439;DHT22;3252;52.540;13.290;2023-05-02T02:35:03;12.50;97.30
6439;DHT22;3252;52.540;13.290;2023-05-02T02:37:12;12.50;97.60
6439;DHT22;3252;52.540;13.290;2023-05-02T02:39:37;12.40;97.80
6439;DHT22;3252;52.540;13.290;2023-05-02T02:41:48;12.40;97.40
6439;DHT22;3252;52.540;13.290;2023-05-02T02:43:59;12.40;97.80
6439;DHT22;3252;52.540;13.290;2023-05-02T02:46:13;12.30;98.00
6439;DHT22;3252;52.540;13.290;2023-05-02T02:48:25;12.30;98.00
6439;DHT22;3252;52.540;13.290;2023-05-02T02:50:33;12.20;98.10
6439;DHT22;3252;52.540;13.290;2023-05-02T02:52:54;12.20;98.30
6439;DHT22;3252;52.540;13.290;2023-05-02T02:55:02;12.10;98.30
6439;DHT22;3252;52.540;13.290;2023-05-02T02:57:15;12.10;98.30
6439;DHT22;3252;52.540;13.290;2023-05-02T02:59:22;12.00;98.50
6439;DHT22;3252;52.540;13.290;2023-05-02T03:01:27;12.00;98.50
6439;DHT22;3252;52.540;13.290;2023-05-02T03:03:32;12.00;98.90
6439;DHT22;3252;52.540;13.290;2023-05-02T03:05:35;11.90;98.70
6439;DHT22;3252;52.540;13.290;2023-05-02T03:07:39;11.90;98.70
6439;DHT22;3252;52.540;13.290;2023-05-02T03:09:42;11.90;98.70
6439;DHT22;3252;52.540;13.290;2023-05-02T03:11:48;11.80;98.60
6439;DHT22;3252;52.540;13.290;2023-05-02T03:13:50;11.80;99.00
6439;DHT22;3252;52.540;13.290;2023-05-02T03:18:37;11.70;99.10
6439;DHT22;3252;52.540;13.290;2023-05-02T03:20:40;11.70;99.00
6439;DHT22;3252;52.540;13.290;2023-05-02T03:22:43;11.70;99.10
6439;DHT22;3252;52.540;13.290;2023-05-02T03:24:46;11.70;99.20
6439;DHT22;3252;52.540;13.290;2023-05-02T03:26:49;11.70;99.30
6439;DHT22;3252;52.540;13.290;2023-05-02T03:28:58;11.70;99.30
6439;DHT22;3252;52.540;13.290;2023-05-02T03:31:06;11.70;99.60
6439;DHT22;3252;52.540;13.290;2023-05-02T03:33:13;11.70;99.40
6439;DHT22;3252;52.540;13.290;2023-05-02T03:35:17;11.60;99.90
6439;DHT22;3252;52.540;13.290;2023-05-02T03:37:22;11.60;99.80
6439;DHT22;3252;52.540;13.290;2023-05-02T03:39:26;11.60;99.90
6439;DHT22;3252;52.540;13.290;2023-05-02T03:41:28;11.60;99.90
6439;DHT22;3252;52.540;13.290;2023-05-02T03:43:36;11.60;99.90
6439;DHT22;3252;52.540;13.290;2023-05-02T03:45:39;11.60;99.90
6439;DHT22;3252;52.540;13.290;2023-05-02T03:47:41;11.60;99.90
6439;DHT22;3252;52.540;13.290;2023-05-02T03:49:43;11.60;99.90
6439;DHT22;3252;52.540;13.290;2023-05-02T03:51:47;11.50;99.90
6439;DHT22;3252;52.540;13.290;2023-05-02T03:53:54;11.60;99.90
6439;DHT22;3252;52.540;13.290;2023-05-02T03:55:58;11.50;99.90
6439;DHT22;3252;52.540;13.290;2023-05-02T03:58:11;11.50;99.90
6439;DHT22;3252;52.540;13.290;2023-05-02T04:00:14;11.50;99.90
6439;DHT22;3252;52.540;13.290;2023-05-02T04:02:24;11.50;99.90
6439;DHT22;3252;52.540;13.290;2023-05-02T04:04:26;11.50;99.90
6439;DHT22;3252;52.540;13.290;2023-05-02T04:06:29;11.40;99.90
6439;DHT22;3252;52.540;13.290;2023-05-02T04:08:35;11.40;99.90
6439;DHT22;3252;52.540;13.290;2023-05-02T04:10:38;11.40;99.90
6439;DHT22;3252;52.540;13.290;2023-05-02T04:12:44;11.50;99.90
6439;DHT22;3252;52.540;13.290;2023-05-02T04:14:47;11.50;99.90
6439;DHT22;3252;52.540;13.290;2023-05-02T04:16:50;11.50;99.90
6439;DHT22;3252;52.540;13.290;2023-05-02T04:18:59;11.40;99.90
6439;DHT22;3252;52.540;13.290;2023-05-02T04:21:02;11.40;99.90
6439;DHT22;3252;52.540;13.290;2023-05-02T04:23:04;11.40;99.90
6439;DHT22;3252;52.540;13.290;2023-05-02T04:25:07;11.50;99.90
6439;DHT22;3252;52.540;13.290;2023-05-02T04:27:11;11.40;99.90
6439;DHT22;3252;52.540;13.290;2023-05-02T04:29:15;11.50;99.90
6439;DHT22;3252;52.540;13.290;2023-05-02T04:31:18;11.50;99.90
6439;DHT22;3252;52.540;13.290;2023-05-02T04:33:21;11.50;99.90
6439;DHT22;3252;52.540;13.290;2023-05-02T04:35:24;11.60;99.90
6439;DHT22;3252;52.540;13.290;2023-05-02T04:37:26;11.60;99.90
6439;DHT22;3252;52.540;13.290;2023-05-02T04:39:29;11.60;99.90
6439;DHT22;3252;52.540;13.290;2023-05-02T04:41:45;11.60;99.90
6439;DHT22;3252;52.540;13.290;2023-05-02T04:43:48;11.70;99.90
6439;DHT22;3252;52.540;13.290;2023-05-02T04:45:52;11.70;99.90
6439;DHT22;3252;52.540;13.290;2023-05-02T04:48:01;11.70;99.90
6439;DHT22;3252;52.540;13.290;2023-05-02T04:50:05;11.70;99.90
6439;DHT22;3252;52.540;13.290;2023-05-02T04:52:08;11.80;99.90
6439;DHT22;3252;52.540;13.290;2023-05-02T04:54:11;11.80;99.90
6439;DHT22;3252;52.540;13.290;2023-05-02T04:56:14;11.80;99.90
6439;DHT22;3252;52.540;13.290;2023-05-02T04:58:16;11.80;99.90
6439;DHT22;3252;52.540;13.290;2023-05-02T05:00:23;11.80;99.90
6439;DHT22;3252;52.540;13.290;2023-05-02T05:02:27;11.80;99.90
6439;DHT22;3252;52.540;13.290;2023-05-02T05:04:31;11.90;99.90
6439;DHT22;3252;52.540;13.290;2023-05-02T05:06:33;11.90;99.90
6439;DHT22;3252;52.540;13.290;2023-05-02T05:08:36;11.90;99.90
6439;DHT22;3252;52.540;13.290;2023-05-02T05:10:38;11.90;99.90
6439;DHT22;3252;52.540;13.290;2023-05-02T05:12:42;11.90;99.90
6439;DHT22;3252;52.540;13.290;2023-05-02T05:14:45;12.00;99.90
6439;DHT22;3252;52.540;13.290;2023-05-02T05:16:48;12.00;99.90
6439;DHT22;3252;52.540;13.290;2023-05-02T05:18:51;12.00;99.90
6439;DHT22;3252;52.540;13.290;2023-05-02T05:20:54;11.90;99.90
6439;DHT22;3252;52.540;13.290;2023-05-02T05:22:56;11.90;99.90
6439;DHT22;3252;52.540;13.290;2023-05-02T05:25:00;11.90;99.90
6439;DHT22;3252;52.540;13.290;2023-05-02T05:27:04;11.90;99.90
6439;DHT22;3252;52.540;13.290;2023-05-02T05:29:07;12.00;99.90
6439;DHT22;3252;52.540;13.290;2023-05-02T05:31:14;12.00;99.90
6439;DHT22;3252;52.540;13.290;2023-05-02T05:33:18;12.00;99.90
6439;DHT22;3252;52.540;13.290;2023-05-02T05:35:22;12.20;99.90
6439;DHT22;3252;52.540;13.290;2023-05-02T05:37:25;12.20;99.90
6439;DHT22;3252;52.540;13.290;2023-05-02T05:39:27;12.30;99.90
6439;DHT22;3252;52.540;13.290;2023-05-02T05:41:31;12.20;99.80
6439;DHT22;3252;52.540;13.290;2023-05-02T05:43:39;12.30;99.90
6439;DHT22;3252;52.540;13.290;2023-05-02T05:45:42;12.40;99.90
6439;DHT22;3252;52.540;13.290;2023-05-02T05:47:45;12.40;99.70
6439;DHT22;3252;52.540;13.290;2023-05-02T05:49:51;12.50;99.30
6439;DHT22;3252;52.540;13.290;2023-05-02T05:51:55;12.60;99.40
6439;DHT22;3252;52.540;13.290;2023-05-02T05:53:57;12.60;99.40
6439;DHT22;3252;52.540;13.290;2023-05-02T05:56:07;12.80;99.50
6439;DHT22;3252;52.540;13.290;2023-05-02T05:58:10;12.90;99.40
6439;DHT22;3252;52.540;13.290;2023-05-02T06:00:14;13.20;98.80
6439;DHT22;3252;52.540;13.290;2023-05-02T06:02:17;13.50;98.50
6439;DHT22;3252;52.540;13.290;2023-05-02T06:04:19;14.00;97.60
6439;DHT22;3252;52.540;13.290;2023-05-02T06:06:23;14.40;96.70
6439;DHT22;3252;52.540;13.290;2023-05-02T06:08:28;14.80;95.90
6439;DHT22;3252;52.540;13.290;2023-05-02T06:10:30;14.80;95.70
6439;DHT22;3252;52.540;13.290;2023-05-02T06:12:34;14.60;96.10
6439;DHT22;3252;52.540;13.290;2023-05-02T06:14:36;14.40;97.00
6439;DHT22;3252;52.540;13.290;2023-05-02T06:16:38;14.40;97.30
6439;DHT22;3252;52.540;13.290;2023-05-02T06:18:41;14.20;97.80
6439;DHT22;3252;52.540;13.290;2023-05-02T06:20:43;14.20;98.20
6439;DHT22;3252;52.540;13.290;2023-05-02T06:22:45;14.50;97.90
6439;DHT22;3252;52.540;13.290;2023-05-02T06:24:48;14.40;98.10
6439;DHT22;3252;52.540;13.290;2023-05-02T06:26:51;14.40;98.50
6439;DHT22;3252;52.540;13.290;2023-05-02T06:28:53;14.50;98.30
6439;DHT22;3252;52.540;13.290;2023-05-02T06:30:57;14.40;98.50
6439;DHT22;3252;52.540;13.290;2023-05-02T06:33:03;14.50;98.70
6439;DHT22;3252;52.540;13.290;2023-05-02T06:35:06;14.50;98.50
6439;DHT22;3252;52.540;13.290;2023-05-02T06:37:08;14.70;98.50
6439;DHT22;3252;52.540;13.290;2023-05-02T06:39:10;14.60;98.20
6439;DHT22;3252;52.540;13.290;2023-05-02T06:41:15;14.50;98.50
6439;DHT22;3252;52.540;13.290;2023-05-02T06:43:17;14.50;98.70
6439;DHT22;3252;52.540;13.290;2023-05-02T06:45:21;14.60;98.60
6439;DHT22;3252;52.540;13.290;2023-05-02T06:47:23;14.80;98.40
6439;DHT22;3252;52.540;13.290;2023-05-02T06:49:25;15.30;97.50
6439;DHT22;3252;52.540;13.290;2023-05-02T06:51:27;15.40;97.10
6439;DHT22;3252;52.540;13.290;2023-05-02T06:53:30;15.30;97.40
6439;DHT22;3252;52.540;13.290;2023-05-02T06:55:32;15.50;97.40
6439;DHT22;3252;52.540;13.290;2023-05-02T06:57:35;15.50;97.00
6439;DHT22;3252;52.540;13.290;2023-05-02T06:59:37;15.50;96.90
6439;DHT22;3252;52.540;13.290;2023-05-02T07:01:39;15.60;97.40
6439;DHT22;3252;52.540;13.290;2023-05-02T07:03:41;15.70;97.20
6439;DHT22;3252;52.540;13.290;2023-05-02T07:05:44;16.10;97.10
6439;DHT22;3252;52.540;13.290;2023-05-02T07:07:46;16.20;96.30
6439;DHT22;3252;52.540;13.290;2023-05-02T07:09:48;15.90;96.70
6439;DHT22;3252;52.540;13.290;2023-05-02T07:11:50;16.00;96.90
6439;DHT22;3252;52.540;13.290;2023-05-02T07:13:53;15.80;97.10
6439;DHT22;3252;52.540;13.290;2023-05-02T07:15:56;15.50;97.50
6439;DHT22;3252;52.540;13.290;2023-05-02T07:17:58;15.70;97.60
6439;DHT22;3252;52.540;13.290;2023-05-02T07:20:00;15.80;97.50
6439;DHT22;3252;52.540;13.290;2023-05-02T07:22:03;15.60;97.50
6439;DHT22;3252;52.540;13.290;2023-05-02T07:24:06;15.60;97.80
6439;DHT22;3252;52.540;13.290;2023-05-02T07:26:08;15.50;97.90
6439;DHT22;3252;52.540;13.290;2023-05-02T07:28:11;15.40;98.20
6439;DHT22;3252;52.540;13.290;2023-05-02T07:30:14;15.70;98.10
6439;DHT22;3252;52.540;13.290;2023-05-02T07:32:16;15.90;98.10
6439;DHT22;3252;52.540;13.290;2023-05-02T07:34:18;16.20;97.10
6439;DHT22;3252;52.540;13.290;2023-05-02T07:36:20;16.20;97.50
6439;DHT22;3252;52.540;13.290;2023-05-02T07:38:23;15.80;97.40
6439;DHT22;3252;52.540;13.290;2023-05-02T07:40:25;15.70;97.70
6439;DHT22;3252;52.540;13.290;2023-05-02T07:42:28;15.50;98.20
6439;DHT22;3252;52.540;13.290;2023-05-02T07:44:31;15.40;98.30
6439;DHT22;3252;52.540;13.290;2023-05-02T07:46:36;15.30;98.60
6439;DHT22;3252;52.540;13.290;2023-05-02T07:48:38;15.30;98.60
6439;DHT22;3252;52.540;13.290;2023-05-02T07:50:41;15.20;98.70
6439;DHT22;3252;52.540;13.290;2023-05-02T07:52:43;14.90;99.40
6439;DHT22;3252;52.540;13.290;2023-05-02T07:54:47;15.00;99.70
6439;DHT22;3252;52.540;13.290;2023-05-02T07:56:49;14.90;99.80
6439;DHT22;3252;52.540;13.290;2023-05-02T07:58:51;14.90;99.80
6439;DHT22;3252;52.540;13.290;2023-05-02T08:00:54;14.90;99.90
6439;DHT22;3252;52.540;13.290;2023-05-02T08:02:57;15.00;99.90
6439;DHT22;3252;52.540;13.290;2023-05-02T08:04:59;15.00;99.90
6439;DHT22;3252;52.540;13.290;2023-05-02T08:07:01;15.10;99.90
6439;DHT22;3252;52.540;13.290;2023-05-02T08:09:03;15.20;99.40
6439;DHT22;3252;52.540;13.290;2023-05-02T08:11:06;15.20;99.60
6439;DHT22;3252;52.540;13.290;2023-05-02T08:13:08;15.10;99.30
6439;DHT22;3252;52.540;13.290;2023-05-02T08:15:11;15.20;99.70
6439;DHT22;3252;52.540;13.290;2023-05-02T08:17:14;15.10;99.40
6439;DHT22;3252;52.540;13.290;2023-05-02T08:19:17;15.00;99.60
6439;DHT22;3252;52.540;13.290;2023-05-02T08:21:20;14.90;99.60
6439;DHT22;3252;52.540;13.290;2023-05-02T08:23:22;14.90;99.90
6439;DHT22;3252;52.540;13.290;2023-05-02T08:25:24;14.70;99.30
6439;DHT22;3252;52.540;13.290;2023-05-02T08:27:26;14.60;99.90
6439;DHT22;3252;52.540;13.290;2023-05-02T08:29:29;14.70;99.90
6439;DHT22;3252;52.540;13.290;2023-05-02T08:31:31;14.70;99.80
6439;DHT22;3252;52.540;13.290;2023-05-02T08:33:34;14.70;99.90
6439;DHT22;3252;52.540;13.290;2023-05-02T08:35:37;14.70;99.90
6439;DHT22;3252;52.540;13.290;2023-05-02T08:37:39;14.70;99.90
6439;DHT22;3252;52.540;13.290;2023-05-02T08:39:42;14.60;99.90
6439;DHT22;3252;52.540;13.290;2023-05-02T08:41:44;14.70;99.90
6439;DHT22;3252;52.540;13.290;2023-05-02T08:43:47;14.60;99.90
6439;DHT22;3252;52.540;13.290;2023-05-02T08:45:52;14.60;99.90
6439;DHT22;3252;52.540;13.290;2023-05-02T08:47:55;14.70;99.90
6439;DHT22;3252;52.540;13.290;2023-05-02T08:49:58;14.60;99.90
6439;DHT22;3252;52.540;13.290;2023-05-02T08:52:03;14.50;99.90
6439;DHT22;3252;52.540;13.290;2023-05-02T08:54:08;14.50;99.90
6439;DHT22;3252;52.540;13.290;2023-05-02T08:56:11;14.50;99.90
6439;DHT22;3252;52.540;13.290;2023-05-02T08:58:13;14.40;99.90
6439;DHT22;3252;52.540;13.290;2023-05-02T09:00:16;14.30;99.90
6439;DHT22;3252;52.540;13.290;2023-05-02T09:02:25;14.30;99.90
6439;DHT22;3252;52.540;13.290;2023-05-02T09:04:31;14.40;99.90
6439;DHT22;3252;52.540;13.290;2023-05-02T09:06:35;15.00;99.90
6439;DHT22;3252;52.540;13.290;2023-05-02T09:08:41;15.30;99.90
6439;DHT22;3252;52.540;13.290;2023-05-02T09:10:44;15.40;99.90
6439;DHT22;3252;52.540;13.290;2023-05-02T09:12:46;15.70;99.90
6439;DHT22;3252;52.540;13.290;2023-05-02T09:15:08;15.80;99.20
6439;DHT22;3252;52.540;13.290;2023-05-02T09:17:10;15.60;99.40
6439;DHT22;3252;52.540;13.290;2023-05-02T09:19:23;15.40;99.70
6439;DHT22;3252;52.540;13.290;2023-05-02T09:21:34;15.10;99.90
6439;DHT22;3252;52.540;13.290;2023-05-02T09:23:40;14.90;99.90
6439;DHT22;3252;52.540;13.290;2023-05-02T09:25:43;14.80;99.90
6439;DHT22;3252;52.540;13.290;2023-05-02T09:27:51;14.60;99.90
6439;DHT22;3252;52.540;13.290;2023-05-02T09:30:21;14.50;99.90
6439;DHT22;3252;52.540;13.290;2023-05-02T09:32:43;14.60;99.90
6439;DHT22;3252;52.540;13.290;2023-05-02T09:35:03;14.60;99.90
6439;DHT22;3252;52.540;13.290;2023-05-02T09:37:08;14.50;99.90
6439;DHT22;3252;52.540;13.290;2023-05-02T09:39:12;14.50;99.90
6439;DHT22;3252;52.540;13.290;2023-05-02T09:41:15;14.60;99.90
6439;DHT22;3252;52.540;13.290;2023-05-02T09:43:17;14.50;99.90
6439;DHT22;3252;52.540;13.290;2023-05-02T09:45:22;14.60;99.90
6439;DHT22;3252;52.540;13.290;2023-05-02T09:47:25;14.60;99.90
6439;DHT22;3252;52.540;13.290;2023-05-02T09:49:39;14.70;99.90
6439;DHT22;3252;52.540;13.290;2023-05-02T09:51:42;14.80;99.90
6439;DHT22;3252;52.540;13.290;2023-05-02T09:53:44;15.80;99.90
6439;DHT22;3252;52.540;13.290;2023-05-02T09:55:47;16.00;99.40
6439;DHT22;3252;52.540;13.290;2023-05-02T09:57:50;15.90;99.20
6439;DHT22;3252;52.540;13.290;2023-05-02T09:59:54;15.70;99.50
6439;DHT22;3252;52.540;13.290;2023-05-02T10:01:58;15.40;99.90
6439;DHT22;3252;52.540;13.290;2023-05-02T10:04:02;15.40;99.90
6439;DHT22;3252;52.540;13.290;2023-05-02T10:06:07;15.20;99.90
6439;DHT22;3252;52.540;13.290;2023-05-02T10:08:11;15.00;99.90
6439;DHT22;3252;52.540;13.290;2023-05-02T10:10:16;14.90;99.90
6439;DHT22;3252;52.540;13.290;2023-05-02T10:12:22;14.90;99.90
6439;DHT22;3252;52.540;13.290;2023-05-02T10:14:26;14.90;99.90
6439;DHT22;3252;52.540;13.290;2023-05-02T10:16:30;14.80;99.90
6439;DHT22;3252;52.540;13.290;2023-05-02T10:18:41;14.60;99.90
6439;DHT22;3252;52.540;13.290;2023-05-02T10:20:50;14.30;99.90
6439;DHT22;3252;52.540;13.290;2023-05-02T10:22:54;14.20;99.90
6439;DHT22;3252;52.540;13.290;2023-05-02T10:24:58;14.20;99.90
6439;DHT22;3252;52.540;13.290;2023-05-02T10:27:03;14.10;99.90
6439;DHT22;3252;52.540;13.290;2023-05-02T10:29:05;13.90;99.90
6439;DHT22;3252;52.540;13.290;2023-05-02T10:31:09;13.70;99.90
6439;DHT22;3252;52.540;13.290;2023-05-02T10:33:13;13.40;99.90
6439;DHT22;3252;52.540;13.290;2023-05-02T10:35:17;13.40;99.90
6439;DHT22;3252;52.540;13.290;2023-05-02T10:37:22;13.30;99.90
6439;DHT22;3252;52.540;13.290;2023-05-02T10:39:24;13.20;99.90
6439;DHT22;3252;52.540;13.290;2023-05-02T10:41:29;13.10;99.90
6439;DHT22;3252;52.540;13.290;2023-05-02T10:43:34;13.00;99.90
6439;DHT22;3252;52.540;13.290;2023-05-02T10:45:37;12.80;99.90
6439;DHT22;3252;52.540;13.290;2023-05-02T10:47:40;12.80;99.90
6439;DHT22;3252;52.540;13.290;2023-05-02T10:49:49;12.80;99.90
6439;DHT22;3252;52.540;13.290;2023-05-02T10:51:53;12.80;99.90
6439;DHT22;3252;52.540;13.290;2023-05-02T10:54:21;12.80;99.90
6439;DHT22;3252;52.540;13.290;2023-05-02T10:56:24;12.70;99.90
6439;DHT22;3252;52.540;13.290;2023-05-02T10:58:26;12.50;99.90
6439;DHT22;3252;52.540;13.290;2023-05-02T11:00:32;12.50;99.90
6439;DHT22;3252;52.540;13.290;2023-05-02T11:02:48;12.40;99.90
6439;DHT22;3252;52.540;13.290;2023-05-02T11:05:01;12.20;99.90
6439;DHT22;3252;52.540;13.290;2023-05-02T11:07:19;12.20;99.90
6439;DHT22;3252;52.540;13.290;2023-05-02T11:09:31;12.40;99.90
6439;DHT22;3252;52.540;13.290;2023-05-02T11:11:38;12.40;99.90
6439;DHT22;3252;52.540;13.290;2023-05-02T11:13:48;12.40;99.90
6439;DHT22;3252;52.540;13.290;2023-05-02T11:15:54;12.50;99.90
6439;DHT22;3252;52.540;13.290;2023-05-02T11:18:00;12.40;99.90
6439;DHT22;3252;52.540;13.290;2023-05-02T11:20:23;12.60;99.90
6439;DHT22;3252;52.540;13.290;2023-05-02T11:22:32;12.70;99.90
6439;DHT22;3252;52.540;13.290;2023-05-02T11:24:38;12.60;99.90
6439;DHT22;3252;52.540;13.290;2023-05-02T11:26:40;12.70;99.80
6439;DHT22;3252;52.540;13.290;2023-05-02T11:28:43;12.80;99.20
6439;DHT22;3252;52.540;13.290;2023-05-02T11:30:49;13.00;99.00
6439;DHT22;3252;52.540;13.290;2023-05-02T11:33:10;12.90;98.50
6439;DHT22;3252;52.540;13.290;2023-05-02T11:35:16;13.00;98.40
6439;DHT22;3252;52.540;13.290;2023-05-02T11:37:19;12.90;98.00
6439;DHT22;3252;52.540;13.290;2023-05-02T11:39:23;12.90;98.20
6439;DHT22;3252;52.540;13.290;2023-05-02T11:41:37;13.00;97.90
6439;DHT22;3252;52.540;13.290;2023-05-02T11:43:39;13.00;97.80
6439;DHT22;3252;52.540;13.290;2023-05-02T11:45:42;12.90;97.30
6439;DHT22;3252;52.540;13.290;2023-05-02T11:47:44;12.90;97.20
6439;DHT22;3252;52.540;13.290;2023-05-02T11:49:47;13.00;97.40
6439;DHT22;3252;52.540;13.290;2023-05-02T11:51:49;12.90;97.30
6439;DHT22;3252;52.540;13.290;2023-05-02T11:53:52;13.00;96.60
6439;DHT22;3252;52.540;13.290;2023-05-02T11:55:59;13.00;97.20
6439;DHT22;3252;52.540;13.290;2023-05-02T11:58:01;13.00;97.40
6439;DHT22;3252;52.540;13.290;2023-05-02T12:00:04;13.10;96.90
6439;DHT22;3252;52.540;13.290;2023-05-02T12:02:07;13.20;96.60
6439;DHT22;3252;52.540;13.290;2023-05-02T12:04:09;13.20;96.30
6439;DHT22;3252;52.540;13.290;2023-05-02T12:06:13;13.30;96.70
6439;DHT22;3252;52.540;13.290;2023-05-02T12:08:24;13.20;96.70
6439;DHT22;3252;52.540;13.290;2023-05-02T12:10:35;13.30;96.10
6439;DHT22;3252;52.540;13.290;2023-05-02T12:12:39;13.40;96.50
6439;DHT22;3252;52.540;13.290;2023-05-02T12:14:42;13.50;96.00
6439;DHT22;3252;52.540;13.290;2023-05-02T12:16:44;13.60;96.10
6439;DHT22;3252;52.540;13.290;2023-05-02T12:18:47;13.50;95.80
6439;DHT22;3252;52.540;13.290;2023-05-02T12:20:50;13.50;95.90
6439;DHT22;3252;52.540;13.290;2023-05-02T12:22:53;13.50;96.20
6439;DHT22;3252;52.540;13.290;2023-05-02T12:24:56;13.50;95.80
6439;DHT22;3252;52.540;13.290;2023-05-02T12:27:11;13.60;95.80
6439;DHT22;3252;52.540;13.290;2023-05-02T12:29:15;13.60;95.20
6439;DHT22;3252;52.540;13.290;2023-05-02T12:31:19;13.50;95.50
6439;DHT22;3252;52.540;13.290;2023-05-02T12:33:22;13.70;96.00
6439;DHT22;3252;52.540;13.290;2023-05-02T12:35:24;13.80;95.10
6439;DHT22;3252;52.540;13.290;2023-05-02T12:37:27;13.80;94.60
6439;DHT22;3252;52.540;13.290;2023-05-02T12:39:36;13.80;95.20
6439;DHT22;3252;52.540;13.290;2023-05-02T12:41:39;14.00;95.10
6439;DHT22;3252;52.540;13.290;2023-05-02T12:43:45;14.40;94.30
6439;DHT22;3252;52.540;13.290;2023-05-02T12:45:49;14.40;93.50
6439;DHT22;3252;52.540;13.290;2023-05-02T12:47:54;14.50;92.10
6439;DHT22;3252;52.540;13.290;2023-05-02T12:49:57;14.50;93.30
6439;DHT22;3252;52.540;13.290;2023-05-02T12:51:59;14.40;93.10
6439;DHT22;3252;52.540;13.290;2023-05-02T12:54:02;14.30;92.30
6439;DHT22;3252;52.540;13.290;2023-05-02T12:56:05;14.30;92.40
6439;DHT22;3252;52.540;13.290;2023-05-02T12:58:08;14.20;92.50
6439;DHT22;3252;52.540;13.290;2023-05-02T13:00:12;14.20;91.90
6439;DHT22;3252;52.540;13.290;2023-05-02T13:02:18;14.20;92.50
6439;DHT22;3252;52.540;13.290;2023-05-02T13:04:20;14.20;91.30
6439;DHT22;3252;52.540;13.290;2023-05-02T13:06:22;14.50;90.90
6439;DHT22;3252;52.540;13.290;2023-05-02T13:08:25;14.60;91.00
6439;DHT22;3252;52.540;13.290;2023-05-02T13:10:27;14.50;90.40
6439;DHT22;3252;52.540;13.290;2023-05-02T13:12:30;14.80;90.30
6439;DHT22;3252;52.540;13.290;2023-05-02T13:14:32;14.80;87.10
6439;DHT22;3252;52.540;13.290;2023-05-02T13:16:34;14.70;85.70
6439;DHT22;3252;52.540;13.290;2023-05-02T13:18:38;14.60;88.10
6439;DHT22;3252;52.540;13.290;2023-05-02T13:20:40;14.60;85.50
6439;DHT22;3252;52.540;13.290;2023-05-02T13:22:43;14.60;86.60